sensor_id;sensor_type;location;lat;lon;timestamp;P1;durP1;ratioP1;P2;durP2;ratioP2
1601;SDS011;794;48.592;9.634;2023-02-13T00:00:28;31.43;;;17.70;;
1601;SDS011;794;48.592;9.634;2023-02-13T00:02:55;29.40;;;18.53;;
1601;SDS011;794;48.592;9.634;2023-02-13T00:05:22;31.23;;;19.10;;
1601;SDS011;794;48.592;9.634;2023-02-13T00:07:49;28.00;;;16.20;;
1601;SDS011;794;48.592;9.634;2023-02-13T00:10:16;32.00;;;19.13;;
1601;SDS011;794;48.592;9.634;2023-02-13T00:12:43;37.00;;;19.20;;
1601;SDS011;794;48.592;9.634;2023-02-13T00:15:10;29.83;;;18.20;;
1601;SDS011;794;48.592;9.634;2023-02-13T00:17:38;31.70;;;19.53;;
1601;SDS011;794;48.592;9.634;2023-02-13T00:20:05;34.57;;;17.90;;
1601;SDS011;794;48.592;9.634;2023-02-13T00:22:34;33.90;;;20.20;;
1601;SDS011;794;48.592;9.634;2023-02-13T00:25:01;33.77;;;18.67;;
1601;SDS011;794;48.592;9.634;2023-02-13T00:27:28;34.03;;;19.00;;
1601;SDS011;794;48.592;9.634;2023-02-13T00:29:55;28.93;;;17.70;;
1601;SDS011;794;48.592;9.634;2023-02-13T00:32:22;31.83;;;17.40;;
1601;SDS011;794;48.592;9.634;2023-02-13T00:34:50;37.53;;;19.60;;
1601;SDS011;794;48.592;9.634;2023-02-13T00:37:17;37.10;;;20.10;;
1601;SDS011;794;48.592;9.634;2023-02-13T00:39:44;32.37;;;19.50;;
1601;SDS011;794;48.592;9.634;2023-02-13T00:42:11;34.47;;;20.87;;
1601;SDS011;794;48.592;9.634;2023-02-13T00:44:38;40.83;;;20.97;;
1601;SDS011;794;48.592;9.634;2023-02-13T00:47:05;30.70;;;20.20;;
1601;SDS011;794;48.592;9.634;2023-02-13T00:49:32;41.43;;;21.80;;
1601;SDS011;794;48.592;9.634;2023-02-13T00:52:00;30.53;;;19.30;;
1601;SDS011;794;48.592;9.634;2023-02-13T00:54:27;43.70;;;21.70;;
1601;SDS011;794;48.592;9.634;2023-02-13T00:56:54;33.90;;;20.43;;
1601;SDS011;794;48.592;9.634;2023-02-13T00:59:21;33.90;;;18.73;;
1601;SDS011;794;48.592;9.634;2023-02-13T01:01:48;30.60;;;18.83;;
1601;SDS011;794;48.592;9.634;2023-02-13T01:04:15;27.80;;;17.70;;
1601;SDS011;794;48.592;9.634;2023-02-13T01:06:42;34.60;;;17.70;;
1601;SDS011;794;48.592;9.634;2023-02-13T01:09:10;23.87;;;16.00;;
1601;SDS011;794;48.592;9.634;2023-02-13T01:11:37;29.50;;;16.00;;
1601;SDS011;794;48.592;9.634;2023-02-13T01:14:04;25.13;;;14.67;;
1601;SDS011;794;48.592;9.634;2023-02-13T01:16:31;21.30;;;13.37;;
1601;SDS011;794;48.592;9.634;2023-02-13T01:18:58;25.73;;;13.90;;
1601;SDS011;794;48.592;9.634;2023-02-13T01:21:25;24.53;;;16.00;;
1601;SDS011;794;48.592;9.634;2023-02-13T01:23:52;24.57;;;14.37;;
1601;SDS011;794;48.592;9.634;2023-02-13T01:26:21;21.40;;;15.17;;
1601;SDS011;794;48.592;9.634;2023-02-13T01:28:50;23.20;;;13.27;;
1601;SDS011;794;48.592;9.634;2023-02-13T01:31:19;17.70;;;12.10;;
1601;SDS011;794;48.592;9.634;2023-02-13T01:33:46;18.10;;;10.50;;
1601;SDS011;794;48.592;9.634;2023-02-13T01:36:13;19.40;;;11.63;;
1601;SDS011;794;48.592;9.634;2023-02-13T01:38:41;18.10;;;12.30;;
1601;SDS011;794;48.592;9.634;2023-02-13T01:41:08;19.33;;;11.60;;
1601;SDS011;794;48.592;9.634;2023-02-13T01:43:44;16.93;;;10.57;;
1601;SDS011;794;48.592;9.634;2023-02-13T01:46:13;19.10;;;11.77;;
1601;SDS011;794;48.592;9.634;2023-02-13T01:48:43;18.53;;;12.00;;
1601;SDS011;794;48.592;9.634;2023-02-13T01:51:14;19.77;;;11.83;;
1601;SDS011;794;48.592;9.634;2023-02-13T01:53:44;18.83;;;11.60;;
1601;SDS011;794;48.592;9.634;2023-02-13T01:56:16;13.50;;;8.73;;
1601;SDS011;794;48.592;9.634;2023-02-13T01:58:48;19.10;;;12.13;;
1601;SDS011;794;48.592;9.634;2023-02-13T02:01:18;17.00;;;11.70;;
1601;SDS011;794;48.592;9.634;2023-02-13T02:03:46;16.07;;;11.37;;
1601;SDS011;794;48.592;9.634;2023-02-13T02:06:18;19.63;;;12.80;;
1601;SDS011;794;48.592;9.634;2023-02-13T02:08:48;17.03;;;12.30;;
1601;SDS011;794;48.592;9.634;2023-02-13T02:11:19;15.87;;;11.30;;
1601;SDS011;794;48.592;9.634;2023-02-13T02:13:53;17.67;;;10.70;;
1601;SDS011;794;48.592;9.634;2023-02-13T02:16:21;21.10;;;11.80;;
1601;SDS011;794;48.592;9.634;2023-02-13T02:18:49;19.77;;;11.70;;
1601;SDS011;794;48.592;9.634;2023-02-13T02:21:28;19.27;;;10.93;;
1601;SDS011;794;48.592;9.634;2023-02-13T02:24:12;16.50;;;11.07;;
1601;SDS011;794;48.592;9.634;2023-02-13T02:30:01;13.17;;;9.13;;
1601;SDS011;794;48.592;9.634;2023-02-13T02:33:03;17.20;;;11.20;;
1601;SDS011;794;48.592;9.634;2023-02-13T02:35:39;15.60;;;11.37;;
1601;SDS011;794;48.592;9.634;2023-02-13T02:38:14;16.93;;;9.70;;
1601;SDS011;794;48.592;9.634;2023-02-13T02:40:53;14.00;;;9.53;;
1601;SDS011;794;48.592;9.634;2023-02-13T02:43:34;12.47;;;8.63;;
1601;SDS011;794;48.592;9.634;2023-02-13T02:46:16;12.37;;;8.30;;
1601;SDS011;794;48.592;9.634;2023-02-13T02:48:52;11.43;;;7.33;;
1601;SDS011;794;48.592;9.634;2023-02-13T02:51:40;11.90;;;7.87;;
1601;SDS011;794;48.592;9.634;2023-02-13T02:54:14;11.17;;;6.90;;
1601;SDS011;794;48.592;9.634;2023-02-13T02:57:05;10.67;;;7.10;;
1601;SDS011;794;48.592;9.634;2023-02-13T02:59:38;12.67;;;7.90;;
1601;SDS011;794;48.592;9.634;2023-02-13T03:02:24;15.07;;;9.57;;
1601;SDS011;794;48.592;9.634;2023-02-13T03:05:09;8.30;;;7.10;;
1601;SDS011;794;48.592;9.634;2023-02-13T03:08:01;12.77;;;7.97;;
1601;SDS011;794;48.592;9.634;2023-02-13T03:10:31;10.10;;;6.80;;
1601;SDS011;794;48.592;9.634;2023-02-13T03:13:27;9.63;;;7.40;;
1601;SDS011;794;48.592;9.634;2023-02-13T03:16:00;13.53;;;8.50;;
1601;SDS011;794;48.592;9.634;2023-02-13T03:18:50;15.40;;;9.60;;
1601;SDS011;794;48.592;9.634;2023-02-13T03:21:42;14.20;;;8.37;;
1601;SDS011;794;48.592;9.634;2023-02-13T03:24:35;13.47;;;8.67;;
1601;SDS011;794;48.592;9.634;2023-02-13T03:27:11;14.70;;;8.40;;
1601;SDS011;794;48.592;9.634;2023-02-13T03:30:09;11.60;;;8.00;;
1601;SDS011;794;48.592;9.634;2023-02-13T03:32:44;11.77;;;8.50;;
1601;SDS011;794;48.592;9.634;2023-02-13T03:35:21;11.70;;;8.07;;
1601;SDS011;794;48.592;9.634;2023-02-13T03:38:19;14.40;;;7.93;;
1601;SDS011;794;48.592;9.634;2023-02-13T03:40:50;14.77;;;9.97;;
1601;SDS011;794;48.592;9.634;2023-02-13T03:43:41;14.70;;;9.93;;
1601;SDS011;794;48.592;9.634;2023-02-13T03:46:16;13.03;;;9.43;;
1601;SDS011;794;48.592;9.634;2023-02-13T03:48:45;13.57;;;11.07;;
1601;SDS011;794;48.592;9.634;2023-02-13T03:51:31;10.27;;;8.50;;
1601;SDS011;794;48.592;9.634;2023-02-13T03:54:04;13.77;;;8.57;;
1601;SDS011;794;48.592;9.634;2023-02-13T03:56:38;15.03;;;9.77;;
1601;SDS011;794;48.592;9.634;2023-02-13T03:59:24;13.60;;;9.30;;
1601;SDS011;794;48.592;9.634;2023-02-13T04:01:58;14.67;;;9.53;;
1601;SDS011;794;48.592;9.634;2023-02-13T04:04:31;16.13;;;11.93;;
1601;SDS011;794;48.592;9.634;2023-02-13T04:07:06;17.17;;;11.43;;
1601;SDS011;794;48.592;9.634;2023-02-13T04:09:39;17.10;;;10.97;;
1601;SDS011;794;48.592;9.634;2023-02-13T04:12:08;18.13;;;12.80;;
1601;SDS011;794;48.592;9.634;2023-02-13T04:14:42;17.20;;;12.30;;
1601;SDS011;794;48.592;9.634;2023-02-13T04:17:16;19.00;;;12.20;;
1601;SDS011;794;48.592;9.634;2023-02-13T04:19:47;16.53;;;12.20;;
1601;SDS011;794;48.592;9.634;2023-02-13T04:22:14;18.47;;;13.23;;
1601;SDS011;794;48.592;9.634;2023-02-13T04:24:43;20.77;;;13.87;;
1601;SDS011;794;48.592;9.634;2023-02-13T04:27:11;19.70;;;12.07;;
1601;SDS011;794;48.592;9.634;2023-02-13T04:29:39;21.07;;;13.57;;
1601;SDS011;794;48.592;9.634;2023-02-13T04:32:06;20.23;;;12.20;;
1601;SDS011;794;48.592;9.634;2023-02-13T04:34:35;20.30;;;13.13;;
1601;SDS011;794;48.592;9.634;2023-02-13T04:37:02;20.40;;;13.93;;
1601;SDS011;794;48.592;9.634;2023-02-13T04:39:29;16.43;;;11.40;;
1601;SDS011;794;48.592;9.634;2023-02-13T04:41:58;20.47;;;12.73;;
1601;SDS011;794;48.592;9.634;2023-02-13T04:44:25;18.93;;;12.20;;
1601;SDS011;794;48.592;9.634;2023-02-13T04:46:52;18.23;;;12.27;;
1601;SDS011;794;48.592;9.634;2023-02-13T04:49:19;17.83;;;14.90;;
1601;SDS011;794;48.592;9.634;2023-02-13T04:51:45;18.47;;;11.47;;
1601;SDS011;794;48.592;9.634;2023-02-13T04:54:12;20.43;;;14.00;;
1601;SDS011;794;48.592;9.634;2023-02-13T04:56:39;21.30;;;12.50;;
1601;SDS011;794;48.592;9.634;2023-02-13T04:59:08;19.73;;;13.57;;
1601;SDS011;794;48.592;9.634;2023-02-13T05:01:35;18.13;;;11.97;;
1601;SDS011;794;48.592;9.634;2023-02-13T05:04:01;18.40;;;12.60;;
1601;SDS011;794;48.592;9.634;2023-02-13T05:06:28;21.87;;;12.07;;
1601;SDS011;794;48.592;9.634;2023-02-13T05:08:55;21.93;;;14.57;;
1601;SDS011;794;48.592;9.634;2023-02-13T05:11:22;18.47;;;11.67;;
1601;SDS011;794;48.592;9.634;2023-02-13T05:13:49;20.57;;;12.20;;
1601;SDS011;794;48.592;9.634;2023-02-13T05:16:18;20.00;;;11.90;;
1601;SDS011;794;48.592;9.634;2023-02-13T05:18:45;17.27;;;12.90;;
1601;SDS011;794;48.592;9.634;2023-02-13T05:21:12;19.87;;;10.70;;
1601;SDS011;794;48.592;9.634;2023-02-13T05:23:56;19.53;;;11.63;;
1601;SDS011;794;48.592;9.634;2023-02-13T05:26:23;14.50;;;9.23;;
1601;SDS011;794;48.592;9.634;2023-02-13T05:28:50;12.97;;;9.77;;
1601;SDS011;794;48.592;9.634;2023-02-13T05:31:38;14.27;;;9.47;;
1601;SDS011;794;48.592;9.634;2023-02-13T05:34:05;11.67;;;9.00;;
1601;SDS011;794;48.592;9.634;2023-02-13T05:36:32;12.00;;;8.37;;
1601;SDS011;794;48.592;9.634;2023-02-13T05:38:59;13.10;;;9.80;;
1601;SDS011;794;48.592;9.634;2023-02-13T05:41:26;14.07;;;8.77;;
1601;SDS011;794;48.592;9.634;2023-02-13T05:43:53;11.27;;;7.90;;
1601;SDS011;794;48.592;9.634;2023-02-13T05:46:20;12.03;;;7.87;;
1601;SDS011;794;48.592;9.634;2023-02-13T05:48:48;14.03;;;10.03;;
1601;SDS011;794;48.592;9.634;2023-02-13T05:51:15;15.70;;;9.37;;
1601;SDS011;794;48.592;9.634;2023-02-13T05:53:42;13.80;;;9.30;;
1601;SDS011;794;48.592;9.634;2023-02-13T05:56:09;13.33;;;8.40;;
1601;SDS011;794;48.592;9.634;2023-02-13T05:58:36;13.27;;;8.07;;
1601;SDS011;794;48.592;9.634;2023-02-13T06:01:03;16.07;;;9.37;;
1601;SDS011;794;48.592;9.634;2023-02-13T06:03:31;13.97;;;8.13;;
1601;SDS011;794;48.592;9.634;2023-02-13T06:05:59;12.67;;;8.33;;
1601;SDS011;794;48.592;9.634;2023-02-13T06:08:26;11.33;;;7.60;;
1601;SDS011;794;48.592;9.634;2023-02-13T06:10:54;20.43;;;10.90;;
1601;SDS011;794;48.592;9.634;2023-02-13T06:13:20;14.40;;;8.17;;
1601;SDS011;794;48.592;9.634;2023-02-13T06:15:48;18.57;;;11.80;;
1601;SDS011;794;48.592;9.634;2023-02-13T06:18:15;18.20;;;11.40;;
1601;SDS011;794;48.592;9.634;2023-02-13T06:20:42;17.40;;;10.37;;
1601;SDS011;794;48.592;9.634;2023-02-13T06:23:11;19.53;;;10.93;;
1601;SDS011;794;48.592;9.634;2023-02-13T06:25:38;13.80;;;9.00;;
1601;SDS011;794;48.592;9.634;2023-02-13T06:28:05;18.60;;;10.53;;
1601;SDS011;794;48.592;9.634;2023-02-13T06:30:32;17.10;;;10.57;;
1601;SDS011;794;48.592;9.634;2023-02-13T06:32:59;18.33;;;10.63;;
1601;SDS011;794;48.592;9.634;2023-02-13T06:35:26;15.97;;;9.97;;
1601;SDS011;794;48.592;9.634;2023-02-13T06:37:53;21.27;;;11.63;;
1601;SDS011;794;48.592;9.634;2023-02-13T06:40:22;19.60;;;8.80;;
1601;SDS011;794;48.592;9.634;2023-02-13T06:42:49;16.43;;;9.50;;
1601;SDS011;794;48.592;9.634;2023-02-13T06:45:16;16.40;;;9.60;;
1601;SDS011;794;48.592;9.634;2023-02-13T06:47:43;18.87;;;11.23;;
1601;SDS011;794;48.592;9.634;2023-02-13T06:50:12;17.30;;;10.30;;
1601;SDS011;794;48.592;9.634;2023-02-13T06:52:44;17.00;;;11.40;;
1601;SDS011;794;48.592;9.634;2023-02-13T06:55:11;20.17;;;11.40;;
1601;SDS011;794;48.592;9.634;2023-02-13T06:57:40;19.70;;;11.47;;
1601;SDS011;794;48.592;9.634;2023-02-13T07:00:07;19.10;;;12.30;;
1601;SDS011;794;48.592;9.634;2023-02-13T07:02:37;18.87;;;12.77;;
1601;SDS011;794;48.592;9.634;2023-02-13T07:05:04;20.03;;;12.70;;
1601;SDS011;794;48.592;9.634;2023-02-13T07:07:32;21.40;;;11.50;;
1601;SDS011;794;48.592;9.634;2023-02-13T07:09:59;23.83;;;13.40;;
1601;SDS011;794;48.592;9.634;2023-02-13T07:12:26;19.33;;;12.10;;
1601;SDS011;794;48.592;9.634;2023-02-13T07:14:55;18.17;;;12.40;;
1601;SDS011;794;48.592;9.634;2023-02-13T07:17:21;23.43;;;16.07;;
1601;SDS011;794;48.592;9.634;2023-02-13T07:19:48;23.47;;;13.60;;
1601;SDS011;794;48.592;9.634;2023-02-13T07:22:15;19.13;;;13.70;;
1601;SDS011;794;48.592;9.634;2023-02-13T07:24:42;21.53;;;13.27;;
1601;SDS011;794;48.592;9.634;2023-02-13T07:27:09;17.50;;;11.07;;
1601;SDS011;794;48.592;9.634;2023-02-13T07:29:36;21.53;;;12.23;;
1601;SDS011;794;48.592;9.634;2023-02-13T07:32:04;18.20;;;12.60;;
1601;SDS011;794;48.592;9.634;2023-02-13T07:34:33;16.67;;;10.30;;
1601;SDS011;794;48.592;9.634;2023-02-13T07:37:00;20.00;;;13.03;;
1601;SDS011;794;48.592;9.634;2023-02-13T07:39:27;19.23;;;12.60;;
1601;SDS011;794;48.592;9.634;2023-02-13T07:41:55;15.77;;;11.10;;
1601;SDS011;794;48.592;9.634;2023-02-13T07:44:22;21.70;;;11.47;;
1601;SDS011;794;48.592;9.634;2023-02-13T07:46:49;21.43;;;11.90;;
1601;SDS011;794;48.592;9.634;2023-02-13T07:49:17;20.20;;;12.30;;
1601;SDS011;794;48.592;9.634;2023-02-13T07:51:44;18.03;;;11.43;;
1601;SDS011;794;48.592;9.634;2023-02-13T07:54:11;33.00;;;20.37;;
1601;SDS011;794;48.592;9.634;2023-02-13T07:56:38;26.57;;;17.90;;
1601;SDS011;794;48.592;9.634;2023-02-13T07:59:05;18.50;;;12.67;;
1601;SDS011;794;48.592;9.634;2023-02-13T08:01:32;16.27;;;10.90;;
1601;SDS011;794;48.592;9.634;2023-02-13T08:03:59;20.20;;;12.83;;
1601;SDS011;794;48.592;9.634;2023-02-13T08:06:27;23.70;;;15.20;;
1601;SDS011;794;48.592;9.634;2023-02-13T08:08:54;22.93;;;15.40;;
1601;SDS011;794;48.592;9.634;2023-02-13T08:11:35;25.23;;;14.77;;
1601;SDS011;794;48.592;9.634;2023-02-13T08:14:20;21.63;;;14.60;;
1601;SDS011;794;48.592;9.634;2023-02-13T08:16:48;25.07;;;14.20;;
1601;SDS011;794;48.592;9.634;2023-02-13T08:19:15;25.70;;;16.03;;
1601;SDS011;794;48.592;9.634;2023-02-13T08:21:44;28.47;;;17.27;;
1601;SDS011;794;48.592;9.634;2023-02-13T08:24:11;24.40;;;17.40;;
1601;SDS011;794;48.592;9.634;2023-02-13T08:26:38;20.17;;;13.53;;
1601;SDS011;794;48.592;9.634;2023-02-13T08:29:05;22.13;;;14.97;;
1601;SDS011;794;48.592;9.634;2023-02-13T08:31:33;24.93;;;15.40;;
1601;SDS011;794;48.592;9.634;2023-02-13T08:34:00;23.30;;;15.43;;
1601;SDS011;794;48.592;9.634;2023-02-13T08:36:27;25.30;;;14.67;;
1601;SDS011;794;48.592;9.634;2023-02-13T08:38:55;24.03;;;15.87;;
1601;SDS011;794;48.592;9.634;2023-02-13T08:41:22;18.00;;;12.67;;
1601;SDS011;794;48.592;9.634;2023-02-13T08:43:49;20.70;;;12.60;;
1601;SDS011;794;48.592;9.634;2023-02-13T08:46:16;13.10;;;10.43;;
1601;SDS011;794;48.592;9.634;2023-02-13T08:48:43;16.23;;;10.50;;
1601;SDS011;794;48.592;9.634;2023-02-13T08:51:11;13.10;;;9.87;;
1601;SDS011;794;48.592;9.634;2023-02-13T08:53:39;12.97;;;10.73;;
1601;SDS011;794;48.592;9.634;2023-02-13T08:56:09;12.03;;;10.43;;
1601;SDS011;794;48.592;9.634;2023-02-13T08:58:36;10.90;;;9.80;;
1601;SDS011;794;48.592;9.634;2023-02-13T09:01:04;8.03;;;7.03;;
1601;SDS011;794;48.592;9.634;2023-02-13T09:03:32;10.80;;;8.83;;
1601;SDS011;794;48.592;9.634;2023-02-13T09:05:59;9.90;;;8.83;;
1601;SDS011;794;48.592;9.634;2023-02-13T09:08:41;10.30;;;8.27;;
1601;SDS011;794;48.592;9.634;2023-02-13T09:11:09;12.33;;;9.07;;
1601;SDS011;794;48.592;9.634;2023-02-13T09:13:36;7.57;;;6.80;;
1601;SDS011;794;48.592;9.634;2023-02-13T09:16:04;9.27;;;7.87;;
1601;SDS011;794;48.592;9.634;2023-02-13T09:18:32;8.80;;;8.00;;
1601;SDS011;794;48.592;9.634;2023-02-13T09:21:00;8.80;;;7.10;;
1601;SDS011;794;48.592;9.634;2023-02-13T09:23:29;10.67;;;8.00;;
1601;SDS011;794;48.592;9.634;2023-02-13T09:25:57;8.70;;;6.20;;
1601;SDS011;794;48.592;9.634;2023-02-13T09:28:27;8.33;;;6.77;;
1601;SDS011;794;48.592;9.634;2023-02-13T09:30:54;10.30;;;8.00;;
1601;SDS011;794;48.592;9.634;2023-02-13T09:33:21;51.70;;;26.90;;
1601;SDS011;794;48.592;9.634;2023-02-13T09:35:49;10.27;;;8.47;;
1601;SDS011;794;48.592;9.634;2023-02-13T09:38:16;17.80;;;9.70;;
1601;SDS011;794;48.592;9.634;2023-02-13T09:40:44;13.13;;;8.77;;
1601;SDS011;794;48.592;9.634;2023-02-13T09:43:16;14.43;;;10.20;;
1601;SDS011;794;48.592;9.634;2023-02-13T09:45:51;19.07;;;11.50;;
1601;SDS011;794;48.592;9.634;2023-02-13T09:48:23;17.93;;;13.87;;
1601;SDS011;794;48.592;9.634;2023-02-13T09:50:54;15.40;;;10.80;;
1601;SDS011;794;48.592;9.634;2023-02-13T09:53:22;16.20;;;14.60;;
1601;SDS011;794;48.592;9.634;2023-02-13T09:55:54;10.30;;;7.20;;
1601;SDS011;794;48.592;9.634;2023-02-13T09:58:35;7.73;;;6.90;;
1601;SDS011;794;48.592;9.634;2023-02-13T10:01:13;12.10;;;8.87;;
1601;SDS011;794;48.592;9.634;2023-02-13T10:03:47;9.30;;;7.90;;
1601;SDS011;794;48.592;9.634;2023-02-13T10:06:23;9.30;;;7.67;;
1601;SDS011;794;48.592;9.634;2023-02-13T10:08:59;12.50;;;9.57;;
1601;SDS011;794;48.592;9.634;2023-02-13T10:11:44;9.30;;;8.00;;
1601;SDS011;794;48.592;9.634;2023-02-13T10:14:29;10.77;;;7.47;;
1601;SDS011;794;48.592;9.634;2023-02-13T10:17:03;9.90;;;7.20;;
1601;SDS011;794;48.592;9.634;2023-02-13T10:19:34;9.53;;;7.33;;
1601;SDS011;794;48.592;9.634;2023-02-13T10:22:06;9.73;;;7.23;;
1601;SDS011;794;48.592;9.634;2023-02-13T10:24:39;9.90;;;7.60;;
1601;SDS011;794;48.592;9.634;2023-02-13T10:27:14;9.37;;;7.40;;
1601;SDS011;794;48.592;9.634;2023-02-13T10:29:46;8.83;;;7.43;;
1601;SDS011;794;48.592;9.634;2023-02-13T10:32:40;10.90;;;7.57;;
1601;SDS011;794;48.592;9.634;2023-02-13T10:35:19;10.47;;;6.70;;
1601;SDS011;794;48.592;9.634;2023-02-13T10:37:50;8.43;;;7.00;;
1601;SDS011;794;48.592;9.634;2023-02-13T10:40:21;7.70;;;6.77;;
1601;SDS011;794;48.592;9.634;2023-02-13T10:42:57;9.57;;;7.80;;
1601;SDS011;794;48.592;9.634;2023-02-13T10:45:35;9.73;;;7.73;;
1601;SDS011;794;48.592;9.634;2023-02-13T10:48:19;8.07;;;6.83;;
1601;SDS011;794;48.592;9.634;2023-02-13T10:51:07;9.27;;;7.60;;
1601;SDS011;794;48.592;9.634;2023-02-13T10:53:45;8.67;;;7.53;;
1601;SDS011;794;48.592;9.634;2023-02-13T10:56:24;11.20;;;9.47;;
1601;SDS011;794;48.592;9.634;2023-02-13T11:01:45;8.30;;;7.40;;
1601;SDS011;794;48.592;9.634;2023-02-13T11:04:18;9.00;;;7.80;;
1601;SDS011;794;48.592;9.634;2023-02-13T11:06:47;11.50;;;7.33;;
1601;SDS011;794;48.592;9.634;2023-02-13T11:09:21;9.60;;;6.70;;
1601;SDS011;794;48.592;9.634;2023-02-13T11:11:48;8.60;;;7.20;;
1601;SDS011;794;48.592;9.634;2023-02-13T11:14:16;8.47;;;7.50;;
1601;SDS011;794;48.592;9.634;2023-02-13T11:16:49;8.27;;;7.13;;
1601;SDS011;794;48.592;9.634;2023-02-13T11:19:23;11.10;;;8.33;;
1601;SDS011;794;48.592;9.634;2023-02-13T11:21:55;7.60;;;6.83;;
1601;SDS011;794;48.592;9.634;2023-02-13T11:24:24;7.63;;;6.83;;
1601;SDS011;794;48.592;9.634;2023-02-13T11:26:55;8.60;;;7.47;;
1601;SDS011;794;48.592;9.634;2023-02-13T11:29:25;7.43;;;6.73;;
1601;SDS011;794;48.592;9.634;2023-02-13T11:32:02;8.97;;;7.17;;
1601;SDS011;794;48.592;9.634;2023-02-13T11:34:33;7.70;;;6.90;;
1601;SDS011;794;48.592;9.634;2023-02-13T11:37:08;12.50;;;10.27;;
1601;SDS011;794;48.592;9.634;2023-02-13T11:39:42;12.43;;;8.10;;
1601;SDS011;794;48.592;9.634;2023-02-13T11:42:11;10.63;;;8.27;;
1601;SDS011;794;48.592;9.634;2023-02-13T11:44:40;8.43;;;7.23;;
1601;SDS011;794;48.592;9.634;2023-02-13T11:47:09;11.73;;;7.47;;
1601;SDS011;794;48.592;9.634;2023-02-13T11:49:43;12.00;;;8.97;;
1601;SDS011;794;48.592;9.634;2023-02-13T11:52:22;9.63;;;7.90;;
1601;SDS011;794;48.592;9.634;2023-02-13T11:54:54;9.40;;;8.40;;
1601;SDS011;794;48.592;9.634;2023-02-13T11:57:23;9.93;;;8.30;;
1601;SDS011;794;48.592;9.634;2023-02-13T11:59:54;11.47;;;7.80;;
1601;SDS011;794;48.592;9.634;2023-02-13T12:02:22;10.20;;;8.67;;
1601;SDS011;794;48.592;9.634;2023-02-13T12:04:53;11.13;;;8.67;;
1601;SDS011;794;48.592;9.634;2023-02-13T12:07:22;9.40;;;8.40;;
1601;SDS011;794;48.592;9.634;2023-02-13T12:09:52;9.63;;;8.10;;
1601;SDS011;794;48.592;9.634;2023-02-13T12:12:27;9.90;;;8.00;;
1601;SDS011;794;48.592;9.634;2023-02-13T12:15:00;11.37;;;8.20;;
1601;SDS011;794;48.592;9.634;2023-02-13T12:17:30;8.87;;;7.97;;
1601;SDS011;794;48.592;9.634;2023-02-13T12:20:01;8.90;;;7.10;;
1601;SDS011;794;48.592;9.634;2023-02-13T12:22:30;10.27;;;8.20;;
1601;SDS011;794;48.592;9.634;2023-02-13T12:28:11;11.27;;;7.83;;
1601;SDS011;794;48.592;9.634;2023-02-13T12:31:02;10.17;;;8.13;;
1601;SDS011;794;48.592;9.634;2023-02-13T12:33:50;10.40;;;8.07;;
1601;SDS011;794;48.592;9.634;2023-02-13T12:36:43;10.87;;;7.87;;
1601;SDS011;794;48.592;9.634;2023-02-13T12:39:24;11.37;;;7.13;;
1601;SDS011;794;48.592;9.634;2023-02-13T12:41:59;8.40;;;6.90;;
1601;SDS011;794;48.592;9.634;2023-02-13T12:44:47;9.87;;;8.10;;
1601;SDS011;794;48.592;9.634;2023-02-13T12:47:28;8.93;;;7.40;;
1601;SDS011;794;48.592;9.634;2023-02-13T12:50:02;14.73;;;11.50;;
1601;SDS011;794;48.592;9.634;2023-02-13T12:52:41;10.53;;;8.10;;
1601;SDS011;794;48.592;9.634;2023-02-13T12:55:18;10.80;;;8.03;;
1601;SDS011;794;48.592;9.634;2023-02-13T12:57:57;11.20;;;8.90;;
1601;SDS011;794;48.592;9.634;2023-02-13T13:00:37;9.37;;;7.73;;
1601;SDS011;794;48.592;9.634;2023-02-13T13:03:23;11.80;;;9.20;;
1601;SDS011;794;48.592;9.634;2023-02-13T13:06:14;10.80;;;8.77;;
1601;SDS011;794;48.592;9.634;2023-02-13T13:09:14;10.80;;;9.43;;
1601;SDS011;794;48.592;9.634;2023-02-13T13:12:02;11.17;;;8.47;;
1601;SDS011;794;48.592;9.634;2023-02-13T13:14:37;8.93;;;8.00;;
1601;SDS011;794;48.592;9.634;2023-02-13T13:17:15;16.10;;;10.40;;
1601;SDS011;794;48.592;9.634;2023-02-13T13:19:53;11.83;;;8.57;;
1601;SDS011;794;48.592;9.634;2023-02-13T13:22:30;13.37;;;9.50;;
1601;SDS011;794;48.592;9.634;2023-02-13T13:25:07;12.10;;;9.80;;
1601;SDS011;794;48.592;9.634;2023-02-13T13:27:41;11.47;;;8.00;;
1601;SDS011;794;48.592;9.634;2023-02-13T13:30:12;13.73;;;10.17;;
1601;SDS011;794;48.592;9.634;2023-02-13T13:32:43;13.07;;;10.07;;
1601;SDS011;794;48.592;9.634;2023-02-13T13:35:14;11.53;;;10.13;;
1601;SDS011;794;48.592;9.634;2023-02-13T13:37:42;12.47;;;9.17;;
1601;SDS011;794;48.592;9.634;2023-02-13T13:40:29;13.77;;;10.63;;
1601;SDS011;794;48.592;9.634;2023-02-13T13:43:09;10.57;;;9.00;;
1601;SDS011;794;48.592;9.634;2023-02-13T13:45:44;13.27;;;9.63;;
1601;SDS011;794;48.592;9.634;2023-02-13T13:51:20;12.00;;;8.80;;
1601;SDS011;794;48.592;9.634;2023-02-13T13:57:04;13.50;;;9.80;;
1601;SDS011;794;48.592;9.634;2023-02-13T13:59:54;15.43;;;13.40;;
1601;SDS011;794;48.592;9.634;2023-02-13T14:05:58;13.23;;;9.43;;
1601;SDS011;794;48.592;9.634;2023-02-13T14:11:40;15.10;;;10.73;;
1601;SDS011;794;48.592;9.634;2023-02-13T14:20:35;15.30;;;10.20;;
1601;SDS011;794;48.592;9.634;2023-02-13T14:23:17;16.93;;;11.37;;
1601;SDS011;794;48.592;9.634;2023-02-13T14:26:09;19.50;;;13.93;;
1601;SDS011;794;48.592;9.634;2023-02-13T14:29:20;18.80;;;12.23;;
1601;SDS011;794;48.592;9.634;2023-02-13T14:34:50;14.83;;;9.17;;
1601;SDS011;794;48.592;9.634;2023-02-13T14:37:33;14.03;;;10.40;;
1601;SDS011;794;48.592;9.634;2023-02-13T14:40:11;11.40;;;9.73;;
1601;SDS011;794;48.592;9.634;2023-02-13T14:43:08;11.37;;;9.70;;
1601;SDS011;794;48.592;9.634;2023-02-13T14:45:54;13.93;;;10.90;;
1601;SDS011;794;48.592;9.634;2023-02-13T14:48:24;15.63;;;9.70;;
1601;SDS011;794;48.592;9.634;2023-02-13T14:51:02;14.30;;;12.13;;
1601;SDS011;794;48.592;9.634;2023-02-13T14:53:32;15.00;;;11.23;;
1601;SDS011;794;48.592;9.634;2023-02-13T14:56:10;14.30;;;9.97;;
1601;SDS011;794;48.592;9.634;2023-02-13T14:58:43;20.13;;;11.83;;
1601;SDS011;794;48.592;9.634;2023-02-13T15:01:17;14.37;;;10.90;;
1601;SDS011;794;48.592;9.634;2023-02-13T15:03:50;17.73;;;11.20;;
1601;SDS011;794;48.592;9.634;2023-02-13T15:06:25;16.70;;;10.73;;
1601;SDS011;794;48.592;9.634;2023-02-13T15:08:55;13.93;;;11.10;;
1601;SDS011;794;48.592;9.634;2023-02-13T15:11:34;16.07;;;11.70;;
1601;SDS011;794;48.592;9.634;2023-02-13T15:14:19;13.90;;;10.20;;
1601;SDS011;794;48.592;9.634;2023-02-13T15:16:49;15.10;;;10.20;;
1601;SDS011;794;48.592;9.634;2023-02-13T15:19:20;16.43;;;11.30;;
1601;SDS011;794;48.592;9.634;2023-02-13T15:21:51;15.50;;;10.43;;
1601;SDS011;794;48.592;9.634;2023-02-13T15:24:20;17.60;;;10.73;;
1601;SDS011;794;48.592;9.634;2023-02-13T15:26:49;15.57;;;11.60;;
1601;SDS011;794;48.592;9.634;2023-02-13T15:29:19;17.47;;;10.73;;
1601;SDS011;794;48.592;9.634;2023-02-13T15:31:46;16.70;;;10.83;;
1601;SDS011;794;48.592;9.634;2023-02-13T15:34:20;14.03;;;10.13;;
1601;SDS011;794;48.592;9.634;2023-02-13T15:36:51;19.23;;;11.77;;
1601;SDS011;794;48.592;9.634;2023-02-13T15:39:19;15.40;;;10.03;;
1601;SDS011;794;48.592;9.634;2023-02-13T15:41:51;16.50;;;12.33;;
1601;SDS011;794;48.592;9.634;2023-02-13T15:44:21;15.60;;;10.90;;
1601;SDS011;794;48.592;9.634;2023-02-13T15:46:51;18.10;;;11.00;;
1601;SDS011;794;48.592;9.634;2023-02-13T15:49:20;15.57;;;11.33;;
1601;SDS011;794;48.592;9.634;2023-02-13T15:51:51;14.33;;;10.80;;
1601;SDS011;794;48.592;9.634;2023-02-13T15:54:28;15.97;;;11.67;;
1601;SDS011;794;48.592;9.634;2023-02-13T15:56:59;16.97;;;12.03;;
1601;SDS011;794;48.592;9.634;2023-02-13T15:59:30;12.37;;;9.23;;
1601;SDS011;794;48.592;9.634;2023-02-13T16:02:01;19.47;;;11.70;;
1601;SDS011;794;48.592;9.634;2023-02-13T16:04:29;17.57;;;12.50;;
1601;SDS011;794;48.592;9.634;2023-02-13T16:06:59;16.87;;;12.67;;
1601;SDS011;794;48.592;9.634;2023-02-13T16:09:29;14.33;;;10.87;;
1601;SDS011;794;48.592;9.634;2023-02-13T16:12:00;17.33;;;11.17;;